Terminal Aerodrome Forecast
Issued by NWS Portland, OR

Home | Current Version | Previous Version | Text Only | Print | Product List | Glossary On
Versions: 1 2 3 4 5 6 7 8 9 10 11 12 13 14 15 16 17 18 19 20
000
FTUS46 KPQR 251739
TAFSLE
TAF
KSLE 251739Z 2518/2618 16012KT P6SM -SHRA SCT050 OVC070
     FM252100 18024G45KT P6SM -SHRA SCT025 OVC050
      TEMPO 2522/2602 4SM SHRA BKN025 OVC040
     FM260200 20015G29KT P6SM -SHRA BKN030 BKN050
     FM260500 22012KT P6SM -SHRA BKN030 BKN050
     FM261000 24007KT P6SM -SHRA BKN030 OVC050=

USA.gov is the U.S. government's official web portal to all federal, state and local government web resources and services.